sensor_id;sensor_type;location;lat;lon;timestamp;P1;durP1;ratioP1;P2;durP2;ratioP2
44516;SDS011;30223;17.182;-96.766;2023-05-19T17:35:55;2.20;;;1.73;;
44516;SDS011;30223;17.182;-96.766;2023-05-19T17:38:22;2.77;;;2.47;;
44516;SDS011;30223;17.182;-96.766;2023-05-19T17:40:48;2.70;;;2.38;;
44516;SDS011;30223;17.182;-96.766;2023-05-19T17:43:15;3.28;;;2.45;;
44516;SDS011;30223;17.182;-96.766;2023-05-19T17:45:42;3.45;;;2.80;;
44516;SDS011;30223;17.182;-96.766;2023-05-19T17:48:09;3.05;;;2.35;;
44516;SDS011;30223;17.182;-96.766;2023-05-19T17:50:35;2.97;;;2.42;;
44516;SDS011;30223;17.182;-96.766;2023-05-19T17:53:02;2.63;;;2.17;;
44516;SDS011;30223;17.182;-96.766;2023-05-19T17:55:29;2.60;;;2.35;;
44516;SDS011;30223;17.182;-96.766;2023-05-19T17:57:56;2.15;;;1.95;;
44516;SDS011;30223;17.182;-96.766;2023-05-19T18:00:23;2.55;;;2.22;;
44516;SDS011;30223;17.182;-96.766;2023-05-19T18:02:50;2.58;;;2.05;;
44516;SDS011;30223;17.182;-96.766;2023-05-19T18:05:21;3.47;;;2.42;;
44516;SDS011;30223;17.182;-96.766;2023-05-19T18:07:48;2.40;;;2.17;;
44516;SDS011;30223;17.182;-96.766;2023-05-19T18:10:15;2.75;;;2.50;;
44516;SDS011;30223;17.182;-96.766;2023-05-19T18:12:42;3.80;;;2.78;;
44516;SDS011;30223;17.182;-96.766;2023-05-19T18:15:09;2.38;;;2.17;;
44516;SDS011;30223;17.182;-96.766;2023-05-19T18:17:36;2.85;;;2.53;;
44516;SDS011;30223;17.182;-96.766;2023-05-19T18:20:03;3.13;;;2.65;;
44516;SDS011;30223;17.182;-96.766;2023-05-19T18:22:31;3.13;;;2.53;;
44516;SDS011;30223;17.182;-96.766;2023-05-19T18:24:57;2.72;;;2.30;;
44516;SDS011;30223;17.182;-96.766;2023-05-19T18:27:24;2.80;;;2.03;;
44516;SDS011;30223;17.182;-96.766;2023-05-19T18:29:52;2.65;;;2.45;;
44516;SDS011;30223;17.182;-96.766;2023-05-19T18:32:18;3.22;;;2.58;;
44516;SDS011;30223;17.182;-96.766;2023-05-19T18:34:53;2.83;;;2.10;;
44516;SDS011;30223;17.182;-96.766;2023-05-19T18:37:19;3.47;;;2.60;;
44516;SDS011;30223;17.182;-96.766;2023-05-19T18:39:46;3.15;;;2.85;;
44516;SDS011;30223;17.182;-96.766;2023-05-19T18:42:13;2.45;;;2.25;;
44516;SDS011;30223;17.182;-96.766;2023-05-19T18:44:40;2.70;;;2.50;;
44516;SDS011;30223;17.182;-96.766;2023-05-19T18:47:11;3.15;;;2.35;;
44516;SDS011;30223;17.182;-96.766;2023-05-19T18:49:38;2.90;;;2.42;;
44516;SDS011;30223;17.182;-96.766;2023-05-19T18:52:05;3.00;;;2.58;;
44516;SDS011;30223;17.182;-96.766;2023-05-19T18:54:32;3.75;;;3.00;;
44516;SDS011;30223;17.182;-96.766;2023-05-19T18:56:58;3.03;;;2.47;;
44516;SDS011;30223;17.182;-96.766;2023-05-19T18:59:27;3.45;;;2.58;;
44516;SDS011;30223;17.182;-96.766;2023-05-19T19:01:54;4.05;;;2.65;;
44516;SDS011;30223;17.182;-96.766;2023-05-19T19:04:20;3.00;;;2.35;;
44516;SDS011;30223;17.182;-96.766;2023-05-19T19:06:47;3.35;;;3.05;;
44516;SDS011;30223;17.182;-96.766;2023-05-19T19:09:15;3.83;;;3.05;;
44516;SDS011;30223;17.182;-96.766;2023-05-19T19:11:42;3.13;;;2.38;;
44516;SDS011;30223;17.182;-96.766;2023-05-19T19:14:09;3.15;;;2.45;;
44516;SDS011;30223;17.182;-96.766;2023-05-19T19:16:36;3.60;;;3.28;;
44516;SDS011;30223;17.182;-96.766;2023-05-19T19:19:02;3.17;;;2.53;;
44516;SDS011;30223;17.182;-96.766;2023-05-19T19:21:29;3.58;;;2.78;;
44516;SDS011;30223;17.182;-96.766;2023-05-19T19:23:56;4.05;;;2.97;;
44516;SDS011;30223;17.182;-96.766;2023-05-19T19:26:23;3.65;;;2.80;;
44516;SDS011;30223;17.182;-96.766;2023-05-19T19:28:56;3.35;;;2.83;;
44516;SDS011;30223;17.182;-96.766;2023-05-19T19:31:23;4.50;;;2.88;;
44516;SDS011;30223;17.182;-96.766;2023-05-19T19:33:51;3.37;;;2.63;;
44516;SDS011;30223;17.182;-96.766;2023-05-19T19:36:18;3.65;;;2.70;;
44516;SDS011;30223;17.182;-96.766;2023-05-19T19:38:45;3.88;;;2.90;;
44516;SDS011;30223;17.182;-96.766;2023-05-19T19:41:12;3.38;;;2.85;;
44516;SDS011;30223;17.182;-96.766;2023-05-19T19:43:38;2.85;;;2.55;;
44516;SDS011;30223;17.182;-96.766;2023-05-19T19:46:05;3.08;;;2.65;;
44516;SDS011;30223;17.182;-96.766;2023-05-19T19:48:33;4.93;;;3.63;;
44516;SDS011;30223;17.182;-96.766;2023-05-19T19:51:00;2.88;;;2.55;;
44516;SDS011;30223;17.182;-96.766;2023-05-19T19:53:27;3.63;;;3.10;;
44516;SDS011;30223;17.182;-96.766;2023-05-19T19:58:24;4.82;;;3.17;;
44516;SDS011;30223;17.182;-96.766;2023-05-19T20:00:54;4.85;;;3.53;;
44516;SDS011;30223;17.182;-96.766;2023-05-19T20:03:25;4.22;;;3.15;;
44516;SDS011;30223;17.182;-96.766;2023-05-19T20:05:52;3.90;;;3.13;;
44516;SDS011;30223;17.182;-96.766;2023-05-19T20:08:21;3.80;;;3.17;;
44516;SDS011;30223;17.182;-96.766;2023-05-19T20:10:48;3.92;;;3.20;;
44516;SDS011;30223;17.182;-96.766;2023-05-19T20:13:15;3.72;;;2.95;;
44516;SDS011;30223;17.182;-96.766;2023-05-19T20:15:42;3.28;;;2.65;;
44516;SDS011;30223;17.182;-96.766;2023-05-19T20:18:10;3.47;;;2.70;;
44516;SDS011;30223;17.182;-96.766;2023-05-19T20:20:39;3.60;;;2.65;;
44516;SDS011;30223;17.182;-96.766;2023-05-19T20:23:06;3.33;;;2.85;;
44516;SDS011;30223;17.182;-96.766;2023-05-19T20:25:33;3.50;;;2.70;;
44516;SDS011;30223;17.182;-96.766;2023-05-19T20:28:06;3.15;;;2.70;;
44516;SDS011;30223;17.182;-96.766;2023-05-19T20:30:33;4.22;;;3.05;;
44516;SDS011;30223;17.182;-96.766;2023-05-19T20:33:00;3.38;;;2.78;;
44516;SDS011;30223;17.182;-96.766;2023-05-19T20:35:27;3.88;;;2.88;;
44516;SDS011;30223;17.182;-96.766;2023-05-19T20:37:54;3.70;;;2.60;;
44516;SDS011;30223;17.182;-96.766;2023-05-19T20:40:21;4.38;;;2.67;;
44516;SDS011;30223;17.182;-96.766;2023-05-19T20:42:47;3.90;;;2.60;;
44516;SDS011;30223;17.182;-96.766;2023-05-19T20:45:14;4.47;;;2.58;;
44516;SDS011;30223;17.182;-96.766;2023-05-19T20:47:41;2.88;;;2.58;;
44516;SDS011;30223;17.182;-96.766;2023-05-19T20:50:07;2.47;;;2.10;;
44516;SDS011;30223;17.182;-96.766;2023-05-19T20:52:34;3.20;;;2.50;;
44516;SDS011;30223;17.182;-96.766;2023-05-19T20:55:01;4.55;;;3.20;;
44516;SDS011;30223;17.182;-96.766;2023-05-19T20:57:28;3.42;;;3.00;;
44516;SDS011;30223;17.182;-96.766;2023-05-19T20:59:55;4.45;;;3.22;;
44516;SDS011;30223;17.182;-96.766;2023-05-19T21:02:21;3.47;;;2.65;;
44516;SDS011;30223;17.182;-96.766;2023-05-19T21:04:48;3.45;;;2.60;;
44516;SDS011;30223;17.182;-96.766;2023-05-19T21:07:15;2.95;;;2.42;;
44516;SDS011;30223;17.182;-96.766;2023-05-19T21:09:42;3.35;;;2.67;;
44516;SDS011;30223;17.182;-96.766;2023-05-19T21:12:11;3.28;;;2.83;;
44516;SDS011;30223;17.182;-96.766;2023-05-19T21:14:40;4.18;;;2.88;;
44516;SDS011;30223;17.182;-96.766;2023-05-19T21:17:07;2.90;;;2.60;;
44516;SDS011;30223;17.182;-96.766;2023-05-19T21:19:35;3.47;;;2.67;;
44516;SDS011;30223;17.182;-96.766;2023-05-19T21:22:02;2.70;;;2.45;;
44516;SDS011;30223;17.182;-96.766;2023-05-19T21:24:29;3.10;;;2.80;;
44516;SDS011;30223;17.182;-96.766;2023-05-19T21:26:56;3.25;;;2.85;;
44516;SDS011;30223;17.182;-96.766;2023-05-19T21:29:22;2.67;;;2.45;;
44516;SDS011;30223;17.182;-96.766;2023-05-19T21:31:50;4.07;;;2.70;;
44516;SDS011;30223;17.182;-96.766;2023-05-19T21:34:20;3.70;;;3.03;;
44516;SDS011;30223;17.182;-96.766;2023-05-19T21:36:47;3.30;;;3.03;;
44516;SDS011;30223;17.182;-96.766;2023-05-19T21:39:15;3.70;;;2.97;;
44516;SDS011;30223;17.182;-96.766;2023-05-19T21:41:42;3.03;;;2.55;;
44516;SDS011;30223;17.182;-96.766;2023-05-19T21:44:08;5.05;;;3.20;;
44516;SDS011;30223;17.182;-96.766;2023-05-19T21:46:35;3.30;;;2.50;;
44516;SDS011;30223;17.182;-96.766;2023-05-19T21:49:02;4.63;;;2.72;;
44516;SDS011;30223;17.182;-96.766;2023-05-19T21:51:29;3.30;;;2.75;;
44516;SDS011;30223;17.182;-96.766;2023-05-19T21:53:56;2.80;;;2.60;;
44516;SDS011;30223;17.182;-96.766;2023-05-19T21:56:23;4.30;;;2.92;;
44516;SDS011;30223;17.182;-96.766;2023-05-19T21:58:49;4.32;;;3.10;;
44516;SDS011;30223;17.182;-96.766;2023-05-19T22:01:16;3.03;;;2.58;;
44516;SDS011;30223;17.182;-96.766;2023-05-19T22:03:43;4.28;;;3.17;;
44516;SDS011;30223;17.182;-96.766;2023-05-19T22:06:10;3.20;;;2.58;;
44516;SDS011;30223;17.182;-96.766;2023-05-19T22:08:37;3.78;;;2.90;;
44516;SDS011;30223;17.182;-96.766;2023-05-19T22:11:03;3.47;;;3.00;;
44516;SDS011;30223;17.182;-96.766;2023-05-19T22:13:31;5.80;;;3.40;;
44516;SDS011;30223;17.182;-96.766;2023-05-19T22:15:58;3.70;;;2.75;;
44516;SDS011;30223;17.182;-96.766;2023-05-19T22:18:25;3.80;;;3.00;;
44516;SDS011;30223;17.182;-96.766;2023-05-19T22:20:51;4.15;;;2.75;;
44516;SDS011;30223;17.182;-96.766;2023-05-19T22:23:18;5.03;;;3.40;;
44516;SDS011;30223;17.182;-96.766;2023-05-19T22:25:47;4.25;;;3.40;;
44516;SDS011;30223;17.182;-96.766;2023-05-19T22:28:14;4.03;;;2.97;;
44516;SDS011;30223;17.182;-96.766;2023-05-19T22:30:41;4.70;;;2.70;;
44516;SDS011;30223;17.182;-96.766;2023-05-19T22:33:09;3.80;;;3.03;;
44516;SDS011;30223;17.182;-96.766;2023-05-19T22:35:36;3.67;;;2.78;;
44516;SDS011;30223;17.182;-96.766;2023-05-19T22:38:03;3.88;;;2.88;;
44516;SDS011;30223;17.182;-96.766;2023-05-19T22:40:29;3.47;;;2.95;;
44516;SDS011;30223;17.182;-96.766;2023-05-19T22:42:56;4.15;;;3.65;;
44516;SDS011;30223;17.182;-96.766;2023-05-19T22:45:23;3.40;;;3.08;;
44516;SDS011;30223;17.182;-96.766;2023-05-19T22:47:50;4.00;;;3.60;;
44516;SDS011;30223;17.182;-96.766;2023-05-19T22:50:16;5.32;;;2.92;;
44516;SDS011;30223;17.182;-96.766;2023-05-19T22:52:44;3.60;;;3.08;;
44516;SDS011;30223;17.182;-96.766;2023-05-19T22:55:11;4.38;;;3.30;;
44516;SDS011;30223;17.182;-96.766;2023-05-19T22:57:37;4.72;;;3.17;;
44516;SDS011;30223;17.182;-96.766;2023-05-19T23:00:04;3.53;;;3.15;;
44516;SDS011;30223;17.182;-96.766;2023-05-19T23:02:32;3.50;;;3.00;;
44516;SDS011;30223;17.182;-96.766;2023-05-19T23:04:59;3.95;;;3.35;;
44516;SDS011;30223;17.182;-96.766;2023-05-19T23:07:26;4.07;;;3.63;;
44516;SDS011;30223;17.182;-96.766;2023-05-19T23:09:52;4.43;;;3.33;;
44516;SDS011;30223;17.182;-96.766;2023-05-19T23:12:19;4.68;;;3.88;;
44516;SDS011;30223;17.182;-96.766;2023-05-19T23:14:46;4.90;;;3.55;;
44516;SDS011;30223;17.182;-96.766;2023-05-19T23:17:13;5.40;;;3.78;;
44516;SDS011;30223;17.182;-96.766;2023-05-19T23:19:39;4.00;;;3.08;;
44516;SDS011;30223;17.182;-96.766;2023-05-19T23:22:06;5.97;;;3.63;;
44516;SDS011;30223;17.182;-96.766;2023-05-19T23:24:33;5.28;;;3.33;;
44516;SDS011;30223;17.182;-96.766;2023-05-19T23:27:00;3.60;;;2.92;;
44516;SDS011;30223;17.182;-96.766;2023-05-19T23:29:26;4.13;;;3.72;;
44516;SDS011;30223;17.182;-96.766;2023-05-19T23:31:53;4.22;;;3.45;;
44516;SDS011;30223;17.182;-96.766;2023-05-19T23:34:20;4.78;;;3.55;;
44516;SDS011;30223;17.182;-96.766;2023-05-19T23:36:47;5.63;;;4.25;;
44516;SDS011;30223;17.182;-96.766;2023-05-19T23:39:13;3.83;;;3.45;;
44516;SDS011;30223;17.182;-96.766;2023-05-19T23:41:40;4.38;;;3.75;;
44516;SDS011;30223;17.182;-96.766;2023-05-19T23:44:07;4.22;;;3.47;;
44516;SDS011;30223;17.182;-96.766;2023-05-19T23:46:34;6.13;;;4.22;;
44516;SDS011;30223;17.182;-96.766;2023-05-19T23:49:00;6.03;;;4.18;;
44516;SDS011;30223;17.182;-96.766;2023-05-19T23:51:29;6.22;;;4.32;;
44516;SDS011;30223;17.182;-96.766;2023-05-19T23:56:22;6.28;;;4.03;;
44516;SDS011;30223;17.182;-96.766;2023-05-19T23:58:49;5.55;;;4.05;;
